sensor_id;sensor_type;location;lat;lon;timestamp;pressure;altitude;pressure_sealevel;temperature;humidity
53689;BME280;39583;54.682;30.662;2023-01-31T07:46:11;97697.88;;;1.52;100.00
53689;BME280;39583;54.682;30.662;2023-01-31T07:48:38;97694.19;;;1.66;100.00
53689;BME280;39583;54.682;30.662;2023-01-31T07:51:04;97700.50;;;1.78;100.00
53689;BME280;39583;54.682;30.662;2023-01-31T07:53:32;97705.81;;;1.85;100.00
53689;BME280;39583;54.682;30.662;2023-01-31T07:56:24;97716.59;;;1.90;100.00
53689;BME280;39583;54.682;30.662;2023-01-31T07:58:51;97720.47;;;2.00;100.00
53689;BME280;39583;54.682;30.662;2023-01-31T08:04:05;97729.22;;;2.14;100.00
53689;BME280;39583;54.682;30.662;2023-01-31T08:06:31;97733.28;;;2.23;99.93
53689;BME280;39583;54.682;30.662;2023-01-31T08:08:57;97733.03;;;2.31;99.96
53689;BME280;39583;54.682;30.662;2023-01-31T08:11:23;97740.56;;;2.41;99.49
53689;BME280;39583;54.682;30.662;2023-01-31T08:13:50;97736.47;;;2.45;99.05
53689;BME280;39583;54.682;30.662;2023-01-31T08:16:16;97746.09;;;2.40;98.20
53689;BME280;39583;54.682;30.662;2023-01-31T08:18:42;97752.06;;;2.35;97.87
53689;BME280;39583;54.682;30.662;2023-01-31T08:21:11;97761.22;;;2.32;97.91
53689;BME280;39583;54.682;30.662;2023-01-31T08:23:37;97754.28;;;2.31;97.96
53689;BME280;39583;54.682;30.662;2023-01-31T08:26:12;97764.50;;;2.34;97.89
53689;BME280;39583;54.682;30.662;2023-01-31T08:28:39;97768.16;;;2.33;97.51
53689;BME280;39583;54.682;30.662;2023-01-31T08:31:06;97764.50;;;2.34;97.11
53689;BME280;39583;54.682;30.662;2023-01-31T08:33:32;97762.63;;;2.42;97.59
53689;BME280;39583;54.682;30.662;2023-01-31T08:36:19;97766.91;;;2.43;96.96
53689;BME280;39583;54.682;30.662;2023-01-31T08:38:46;97760.78;;;2.42;96.87
53689;BME280;39583;54.682;30.662;2023-01-31T08:41:13;97769.16;;;2.46;97.18
53689;BME280;39583;54.682;30.662;2023-01-31T08:43:39;97774.63;;;2.64;97.60
53689;BME280;39583;54.682;30.662;2023-01-31T08:46:05;97773.38;;;2.66;96.93
53689;BME280;39583;54.682;30.662;2023-01-31T08:48:32;97779.91;;;2.71;96.98
53689;BME280;39583;54.682;30.662;2023-01-31T08:51:03;97781.31;;;2.73;96.58
53689;BME280;39583;54.682;30.662;2023-01-31T08:53:31;97785.81;;;2.79;97.06
53689;BME280;39583;54.682;30.662;2023-01-31T08:56:01;97785.09;;;2.97;97.27
53689;BME280;39583;54.682;30.662;2023-01-31T08:58:29;97794.22;;;3.14;96.96
53689;BME280;39583;54.682;30.662;2023-01-31T09:01:07;97791.81;;;3.06;95.80
53689;BME280;39583;54.682;30.662;2023-01-31T09:03:33;97785.66;;;3.06;96.37
53689;BME280;39583;54.682;30.662;2023-01-31T11:25:54;97877.06;;;3.11;100.00
53689;BME280;39583;54.682;30.662;2023-01-31T11:28:28;97886.16;;;3.42;100.00
53689;BME280;39583;54.682;30.662;2023-01-31T11:30:58;97879.13;;;3.54;99.21
53689;BME280;39583;54.682;30.662;2023-01-31T11:36:12;97884.53;;;3.72;98.98
53689;BME280;39583;54.682;30.662;2023-01-31T11:38:39;97865.88;;;3.79;98.37
53689;BME280;39583;54.682;30.662;2023-01-31T11:44:09;97880.13;;;3.91;96.13
53689;BME280;39583;54.682;30.662;2023-01-31T11:49:32;97870.44;;;3.97;96.17
53689;BME280;39583;54.682;30.662;2023-01-31T11:52:00;97889.91;;;4.22;96.78
53689;BME280;39583;54.682;30.662;2023-01-31T11:54:30;97889.59;;;4.37;95.94
53689;BME280;39583;54.682;30.662;2023-01-31T11:56:58;97892.22;;;4.43;96.06
53689;BME280;39583;54.682;30.662;2023-01-31T11:59:29;97893.63;;;4.46;94.81
53689;BME280;39583;54.682;30.662;2023-01-31T12:01:57;97894.47;;;4.40;94.27
53689;BME280;39583;54.682;30.662;2023-01-31T12:04:31;97890.38;;;4.19;93.60
53689;BME280;39583;54.682;30.662;2023-01-31T12:07:02;97908.22;;;4.12;94.17
53689;BME280;39583;54.682;30.662;2023-01-31T12:09:39;97900.09;;;4.07;94.24
53689;BME280;39583;54.682;30.662;2023-01-31T12:14:50;97913.75;;;3.85;94.00
53689;BME280;39583;54.682;30.662;2023-01-31T12:17:20;97844.56;;;3.09;91.72
53689;BME280;39583;54.682;30.662;2023-01-31T12:34:17;97874.59;;;2.52;92.98
53689;BME280;39583;54.682;30.662;2023-01-31T12:37:12;97895.25;;;2.36;92.17
53689;BME280;39583;54.682;30.662;2023-01-31T12:40:14;97938.97;;;2.34;91.87
53689;BME280;39583;54.682;30.662;2023-01-31T12:56:25;97959.81;;;2.17;93.68
53689;BME280;39583;54.682;30.662;2023-01-31T13:01:47;97961.63;;;2.17;93.66
53689;BME280;39583;54.682;30.662;2023-01-31T13:09:44;97962.03;;;2.00;94.17
53689;BME280;39583;54.682;30.662;2023-01-31T13:14:46;97982.66;;;1.98;94.65
53689;BME280;39583;54.682;30.662;2023-01-31T13:17:17;97988.16;;;2.03;95.21
53689;BME280;39583;54.682;30.662;2023-01-31T13:20:25;97986.75;;;2.14;95.66
53689;BME280;39583;54.682;30.662;2023-01-31T13:23:00;97986.38;;;2.24;95.36
53689;BME280;39583;54.682;30.662;2023-01-31T13:25:36;97989.84;;;2.24;95.45
53689;BME280;39583;54.682;30.662;2023-01-31T13:28:20;97987.19;;;2.31;95.48
53689;BME280;39583;54.682;30.662;2023-01-31T13:30:55;97987.00;;;2.39;95.67
53689;BME280;39583;54.682;30.662;2023-01-31T13:35:56;97996.78;;;2.32;94.59
53689;BME280;39583;54.682;30.662;2023-01-31T13:38:26;97997.59;;;2.26;94.37
53689;BME280;39583;54.682;30.662;2023-01-31T13:40:56;98012.31;;;2.28;94.39
53689;BME280;39583;54.682;30.662;2023-01-31T13:43:22;98014.75;;;2.30;94.49
53689;BME280;39583;54.682;30.662;2023-01-31T13:45:55;98013.75;;;2.24;94.15
53689;BME280;39583;54.682;30.662;2023-01-31T13:51:02;98004.72;;;2.19;94.58
53689;BME280;39583;54.682;30.662;2023-01-31T13:53:35;98017.00;;;2.20;94.51
53689;BME280;39583;54.682;30.662;2023-01-31T13:56:09;98026.19;;;2.17;94.07
53689;BME280;39583;54.682;30.662;2023-01-31T13:58:38;98031.66;;;2.02;93.82
53689;BME280;39583;54.682;30.662;2023-01-31T14:01:24;98036.53;;;1.92;94.04
53689;BME280;39583;54.682;30.662;2023-01-31T14:09:36;98046.22;;;1.65;94.93
53689;BME280;39583;54.682;30.662;2023-01-31T14:22:25;98048.72;;;1.80;96.08
53689;BME280;39583;54.682;30.662;2023-01-31T14:32:40;98051.78;;;1.70;95.63
53689;BME280;39583;54.682;30.662;2023-01-31T14:40:57;98064.59;;;1.67;95.78
53689;BME280;39583;54.682;30.662;2023-01-31T14:49:45;98069.28;;;1.65;95.45
53689;BME280;39583;54.682;30.662;2023-01-31T14:55:28;98068.63;;;1.56;95.48
53689;BME280;39583;54.682;30.662;2023-01-31T14:57:59;98072.28;;;1.55;95.57
53689;BME280;39583;54.682;30.662;2023-01-31T15:00:35;98067.97;;;1.47;95.33
53689;BME280;39583;54.682;30.662;2023-01-31T15:05:47;98080.81;;;1.44;95.23
53689;BME280;39583;54.682;30.662;2023-01-31T15:13:48;98089.94;;;1.35;95.22
53689;BME280;39583;54.682;30.662;2023-01-31T15:16:34;98088.09;;;1.35;95.37
53689;BME280;39583;54.682;30.662;2023-01-31T15:19:11;98090.97;;;1.34;95.68
53689;BME280;39583;54.682;30.662;2023-01-31T15:21:54;98093.19;;;1.30;95.36
53689;BME280;39583;54.682;30.662;2023-01-31T15:27:06;98093.91;;;1.17;95.47
53689;BME280;39583;54.682;30.662;2023-01-31T15:30:34;98100.59;;;1.13;95.52
53689;BME280;39583;54.682;30.662;2023-01-31T15:32:51;98107.31;;;1.09;95.33
53689;BME280;39583;54.682;30.662;2023-01-31T15:35:22;98102.41;;;1.06;95.83
53689;BME280;39583;54.682;30.662;2023-01-31T15:38:20;98107.31;;;1.09;96.35
53689;BME280;39583;54.682;30.662;2023-01-31T15:41:45;98110.00;;;1.16;96.07
53689;BME280;39583;54.682;30.662;2023-01-31T15:44:17;98114.94;;;1.19;96.33
53689;BME280;39583;54.682;30.662;2023-01-31T15:46:47;98115.13;;;1.17;96.01
53689;BME280;39583;54.682;30.662;2023-01-31T15:49:29;98113.09;;;1.20;96.31
53689;BME280;39583;54.682;30.662;2023-01-31T15:54:33;98114.72;;;1.21;96.56
53689;BME280;39583;54.682;30.662;2023-01-31T15:57:01;98118.44;;;1.26;96.68
53689;BME280;39583;54.682;30.662;2023-01-31T15:59:30;98118.69;;;1.31;96.48
53689;BME280;39583;54.682;30.662;2023-01-31T16:02:00;98129.53;;;1.36;96.85
53689;BME280;39583;54.682;30.662;2023-01-31T16:04:29;98130.16;;;1.38;96.61
53689;BME280;39583;54.682;30.662;2023-01-31T16:06:55;98129.75;;;1.41;96.59
53689;BME280;39583;54.682;30.662;2023-01-31T16:09:28;98136.69;;;1.42;96.68
53689;BME280;39583;54.682;30.662;2023-01-31T16:11:59;98122.38;;;1.37;96.44
53689;BME280;39583;54.682;30.662;2023-01-31T16:14:26;98133.91;;;1.51;96.59
53689;BME280;39583;54.682;30.662;2023-01-31T16:16:56;98131.66;;;1.54;96.28
53689;BME280;39583;54.682;30.662;2023-01-31T16:19:31;98137.78;;;1.55;96.27
53689;BME280;39583;54.682;30.662;2023-01-31T16:22:00;98140.66;;;1.53;96.08
53689;BME280;39583;54.682;30.662;2023-01-31T16:24:28;98141.47;;;1.54;95.68
53689;BME280;39583;54.682;30.662;2023-01-31T16:26:59;98125.91;;;1.44;95.49
53689;BME280;39583;54.682;30.662;2023-01-31T16:29:47;98139.81;;;1.53;95.67
53689;BME280;39583;54.682;30.662;2023-01-31T16:32:32;98136.75;;;1.49;95.55
53689;BME280;39583;54.682;30.662;2023-01-31T16:38:23;98144.41;;;1.37;95.18
53689;BME280;39583;54.682;30.662;2023-01-31T16:40:55;98154.53;;;1.27;94.96
53689;BME280;39583;54.682;30.662;2023-01-31T16:43:31;98161.69;;;1.27;95.63
53689;BME280;39583;54.682;30.662;2023-01-31T16:46:04;98159.50;;;1.37;96.22
53689;BME280;39583;54.682;30.662;2023-01-31T16:48:33;98168.34;;;1.44;96.10
53689;BME280;39583;54.682;30.662;2023-01-31T17:02:24;98179.94;;;1.43;95.49
53689;BME280;39583;54.682;30.662;2023-01-31T17:05:14;98176.31;;;1.44;95.74
53689;BME280;39583;54.682;30.662;2023-01-31T17:07:42;98177.28;;;1.43;95.82
53689;BME280;39583;54.682;30.662;2023-01-31T17:12:43;98179.38;;;1.47;95.81
53689;BME280;39583;54.682;30.662;2023-01-31T17:15:17;98183.47;;;1.50;95.90
53689;BME280;39583;54.682;30.662;2023-01-31T17:17:44;98186.25;;;1.42;95.77
53689;BME280;39583;54.682;30.662;2023-01-31T17:20:16;98199.78;;;1.47;95.29
53689;BME280;39583;54.682;30.662;2023-01-31T17:22:43;98209.72;;;1.38;94.58
53689;BME280;39583;54.682;30.662;2023-01-31T17:25:21;98202.22;;;1.21;93.92
53689;BME280;39583;54.682;30.662;2023-01-31T17:27:49;98202.09;;;1.07;94.07
53689;BME280;39583;54.682;30.662;2023-01-31T17:30:17;98199.56;;;0.99;93.87
53689;BME280;39583;54.682;30.662;2023-01-31T17:32:44;98198.06;;;0.90;94.11
53689;BME280;39583;54.682;30.662;2023-01-31T17:35:23;98197.81;;;0.85;93.98
53689;BME280;39583;54.682;30.662;2023-01-31T17:37:50;98206.97;;;0.82;94.50
53689;BME280;39583;54.682;30.662;2023-01-31T17:40:16;98207.97;;;0.81;94.56
53689;BME280;39583;54.682;30.662;2023-01-31T17:42:43;98208.16;;;0.80;94.72
53689;BME280;39583;54.682;30.662;2023-01-31T17:45:15;98208.97;;;0.80;94.84
53689;BME280;39583;54.682;30.662;2023-01-31T17:47:45;98211.97;;;0.77;94.82
53689;BME280;39583;54.682;30.662;2023-01-31T17:50:20;98208.16;;;0.80;95.00
53689;BME280;39583;54.682;30.662;2023-01-31T17:52:46;98210.03;;;0.86;95.22
53689;BME280;39583;54.682;30.662;2023-01-31T17:55:14;98203.94;;;0.85;95.07
53689;BME280;39583;54.682;30.662;2023-01-31T17:57:41;98214.13;;;0.88;94.82
53689;BME280;39583;54.682;30.662;2023-01-31T18:00:10;98207.78;;;0.83;94.95
53689;BME280;39583;54.682;30.662;2023-01-31T18:02:37;98205.13;;;0.83;94.85
53689;BME280;39583;54.682;30.662;2023-01-31T18:05:08;98205.13;;;0.83;95.19
53689;BME280;39583;54.682;30.662;2023-01-31T18:07:34;98208.59;;;0.83;95.06
53689;BME280;39583;54.682;30.662;2023-01-31T18:10:02;98213.47;;;0.80;94.89
53689;BME280;39583;54.682;30.662;2023-01-31T18:12:28;98216.31;;;0.78;94.90
53689;BME280;39583;54.682;30.662;2023-01-31T18:14:55;98215.84;;;0.75;94.63
53689;BME280;39583;54.682;30.662;2023-01-31T18:17:21;98212.94;;;0.70;94.84
53689;BME280;39583;54.682;30.662;2023-01-31T18:19:47;98215.59;;;0.70;94.96
53689;BME280;39583;54.682;30.662;2023-01-31T18:22:13;98198.25;;;0.67;95.44
53689;BME280;39583;54.682;30.662;2023-01-31T18:24:42;98210.72;;;0.73;95.18
53689;BME280;39583;54.682;30.662;2023-01-31T18:27:10;98212.75;;;0.71;95.42
53689;BME280;39583;54.682;30.662;2023-01-31T18:29:37;98211.09;;;0.70;95.37
53689;BME280;39583;54.682;30.662;2023-01-31T18:32:04;98201.16;;;0.72;95.46
53689;BME280;39583;54.682;30.662;2023-01-31T18:34:33;98212.56;;;0.73;95.36
53689;BME280;39583;54.682;30.662;2023-01-31T18:37:00;98212.56;;;0.73;95.14
53689;BME280;39583;54.682;30.662;2023-01-31T18:39:26;98204.81;;;0.71;95.09
53689;BME280;39583;54.682;30.662;2023-01-31T18:41:52;98195.91;;;0.57;94.97
53689;BME280;39583;54.682;30.662;2023-01-31T18:44:18;98215.88;;;0.60;94.80
